createdAt,value
2023-01-02T00:00:29.193Z,1.85
2023-01-02T00:02:56.024Z,1.63
2023-01-02T00:05:22.907Z,3.88
2023-01-02T00:07:49.401Z,1.75
2023-01-02T00:10:15.976Z,1.83
2023-01-02T00:12:42.663Z,2.00
2023-01-02T00:15:09.396Z,2.67
2023-01-02T00:17:36.030Z,1.67
2023-01-02T00:20:02.685Z,2.42
2023-01-02T00:22:29.284Z,2.55
2023-01-02T00:24:56.061Z,2.17
2023-01-02T00:27:22.611Z,2.83
2023-01-02T00:29:49.070Z,5.97
2023-01-02T00:32:16.070Z,4.70
2023-01-02T00:34:42.526Z,2.08
2023-01-02T00:37:09.005Z,2.45
2023-01-02T00:39:35.678Z,2.20
2023-01-02T00:42:02.172Z,2.13
2023-01-02T00:44:28.877Z,2.45
2023-01-02T00:46:55.343Z,3.22
2023-01-02T00:49:22.107Z,2.20
2023-01-02T00:51:49.027Z,2.53
2023-01-02T00:54:15.544Z,2.47
2023-01-02T00:56:42.154Z,2.50
2023-01-02T00:59:08.636Z,2.13
2023-01-02T01:01:35.585Z,2.22
2023-01-02T01:04:02.408Z,3.47
2023-01-02T01:06:28.938Z,2.17
2023-01-02T01:08:55.333Z,2.35
2023-01-02T01:11:21.732Z,2.10
2023-01-02T01:13:48.423Z,1.77
2023-01-02T01:16:17.660Z,2.45
2023-01-02T01:18:44.860Z,4.38
2023-01-02T01:21:18.226Z,2.00
2023-01-02T01:23:49.050Z,1.70
2023-01-02T01:26:15.533Z,2.08
2023-01-02T01:28:42.020Z,2.45
2023-01-02T01:31:13.578Z,4.40
2023-01-02T01:33:41.312Z,3.30
2023-01-02T01:36:16.555Z,2.10
2023-01-02T01:38:43.414Z,1.55
2023-01-02T01:41:12.004Z,2.22
2023-01-02T01:43:50.040Z,1.83
2023-01-02T01:46:26.716Z,2.00
2023-01-02T01:48:59.660Z,1.50
2023-01-02T01:51:29.303Z,1.85
2023-01-02T01:54:04.921Z,1.52
2023-01-02T01:56:35.778Z,2.20
2023-01-02T01:59:02.836Z,2.10
2023-01-02T02:01:29.554Z,2.78
2023-01-02T02:03:56.776Z,2.28
2023-01-02T02:06:23.260Z,2.63
2023-01-02T02:09:00.760Z,1.65
2023-01-02T02:11:28.311Z,1.63
2023-01-02T02:13:59.419Z,1.90
2023-01-02T02:16:33.199Z,3.47
2023-01-02T02:19:18.170Z,3.42
2023-01-02T02:22:21.763Z,2.75
2023-01-02T02:25:25.699Z,2.50
2023-01-02T02:27:55.190Z,1.63
2023-01-02T02:30:25.120Z,3.63
2023-01-02T02:33:29.219Z,2.65
2023-01-02T02:36:18.525Z,3.55
2023-01-02T02:39:06.469Z,1.80
2023-01-02T02:41:42.118Z,1.95
2023-01-02T02:44:22.004Z,2.75
2023-01-02T02:47:18.675Z,2.28
2023-01-02T02:49:54.640Z,1.80
2023-01-02T02:52:31.742Z,6.53
2023-01-02T02:55:12.904Z,2.08
2023-01-02T02:57:42.175Z,2.97
2023-01-02T03:00:12.288Z,2.22
2023-01-02T03:02:38.925Z,1.20
2023-01-02T03:05:10.085Z,4.88
2023-01-02T03:07:49.234Z,2.78
2023-01-02T03:10:35.575Z,3.33
2023-01-02T03:13:27.043Z,1.40
2023-01-02T03:16:11.776Z,1.48
2023-01-02T03:18:50.239Z,3.15
2023-01-02T03:21:36.106Z,2.45
2023-01-02T03:24:07.561Z,2.72
2023-01-02T03:26:36.387Z,3.08
2023-01-02T03:29:09.584Z,1.75
2023-01-02T03:31:40.673Z,2.20
2023-01-02T03:34:12.775Z,2.22
2023-01-02T03:36:42.638Z,1.58
2023-01-02T03:39:17.945Z,1.58
2023-01-02T03:41:51.310Z,1.50
2023-01-02T03:44:20.594Z,3.50
2023-01-02T03:46:48.481Z,3.13
2023-01-02T03:49:23.785Z,1.85
2023-01-02T03:51:51.028Z,1.60
2023-01-02T03:54:18.692Z,1.55
2023-01-02T03:56:57.719Z,1.70
2023-01-02T03:59:24.080Z,1.60
2023-01-02T04:02:09.427Z,1.92
2023-01-02T04:04:56.667Z,2.28
2023-01-02T04:07:37.362Z,3.08
2023-01-02T04:10:06.420Z,3.00
2023-01-02T04:12:36.855Z,2.25
2023-01-02T04:15:07.794Z,3.13
2023-01-02T04:17:42.167Z,2.13
2023-01-02T04:20:15.421Z,2.80
2023-01-02T04:22:50.216Z,2.78
2023-01-02T04:25:18.594Z,2.38
2023-01-02T04:27:54.405Z,2.55
2023-01-02T04:30:21.183Z,3.35
2023-01-02T04:32:48.628Z,1.50
2023-01-02T04:35:19.669Z,2.22
2023-01-02T04:37:46.579Z,4.40
2023-01-02T04:40:27.302Z,3.97
2023-01-02T04:42:53.704Z,2.20
2023-01-02T04:45:20.359Z,3.75
2023-01-02T04:47:50.619Z,2.17
2023-01-02T04:50:17.356Z,2.83
2023-01-02T04:52:43.910Z,3.55
2023-01-02T04:55:10.777Z,6.18
2023-01-02T04:57:37.880Z,2.85
2023-01-02T05:00:06.094Z,2.67
2023-01-02T05:02:40.922Z,4.07
2023-01-02T05:05:09.041Z,4.78
2023-01-02T05:07:36.970Z,3.90
2023-01-02T05:10:04.325Z,4.88
2023-01-02T05:12:35.069Z,2.97
2023-01-02T05:15:02.288Z,2.38
2023-01-02T05:17:29.158Z,6.70
2023-01-02T05:19:55.632Z,4.00
2023-01-02T05:22:40.753Z,4.20
2023-01-02T05:25:09.202Z,6.45
2023-01-02T05:27:35.621Z,5.70
2023-01-02T05:30:02.191Z,3.53
2023-01-02T05:32:28.643Z,3.42
2023-01-02T05:34:56.574Z,3.35
2023-01-02T05:37:22.967Z,2.90
2023-01-02T05:39:49.412Z,5.95
2023-01-02T05:42:15.856Z,2.72
2023-01-02T05:44:42.287Z,2.50
2023-01-02T05:47:13.411Z,2.50
2023-01-02T05:49:42.806Z,4.43
2023-01-02T05:52:09.242Z,3.10
2023-01-02T05:54:35.654Z,4.35
2023-01-02T05:57:02.113Z,4.15
2023-01-02T05:59:28.549Z,2.65
2023-01-02T06:01:55.541Z,3.38
2023-01-02T06:04:22.063Z,4.97
2023-01-02T06:06:49.516Z,2.88
2023-01-02T06:09:16.950Z,3.90
2023-01-02T06:11:43.575Z,3.85
2023-01-02T06:14:10.699Z,2.22
2023-01-02T06:16:38.495Z,4.80
2023-01-02T06:19:05.664Z,3.72
2023-01-02T06:21:32.541Z,3.00
2023-01-02T06:23:59.680Z,9.10
2023-01-02T06:26:32.734Z,4.85
2023-01-02T06:29:01.515Z,4.60
2023-01-02T06:31:29.561Z,2.67
2023-01-02T06:34:01.191Z,5.05
2023-01-02T06:36:30.886Z,9.05
2023-01-02T06:38:57.523Z,25.30
2023-01-02T06:41:24.336Z,39.75
2023-01-02T06:43:51.436Z,32.50
2023-01-02T06:46:20.073Z,43.17
2023-01-02T06:48:46.613Z,27.02
2023-01-02T06:51:16.216Z,19.48
2023-01-02T06:53:43.732Z,21.05
2023-01-02T06:56:11.484Z,24.20
2023-01-02T06:58:38.615Z,13.32
2023-01-02T07:01:11.574Z,13.05
2023-01-02T07:03:38.697Z,17.10
2023-01-02T07:06:10.581Z,22.23
2023-01-02T07:08:37.434Z,20.95
2023-01-02T07:11:10.317Z,12.77
2023-01-02T07:13:36.861Z,15.27
2023-01-02T07:16:05.571Z,8.82
2023-01-02T07:18:32.997Z,9.30
2023-01-02T07:20:59.531Z,8.75
2023-01-02T07:23:26.197Z,11.10
2023-01-02T07:25:57.857Z,19.95
2023-01-02T07:28:27.359Z,8.68
2023-01-02T07:30:58.430Z,11.52
2023-01-02T07:33:25.563Z,6.97
2023-01-02T07:35:51.971Z,5.80
2023-01-02T07:38:18.412Z,5.25
2023-01-02T07:40:44.833Z,6.20
2023-01-02T07:43:11.276Z,14.85
2023-01-02T07:45:37.786Z,9.77
2023-01-02T07:48:04.540Z,12.18
2023-01-02T07:50:30.941Z,16.00
2023-01-02T07:52:57.378Z,12.00
2023-01-02T07:55:23.815Z,11.15
2023-01-02T07:57:50.337Z,10.40
2023-01-02T08:00:17.790Z,11.45
2023-01-02T08:02:44.582Z,11.20
2023-01-02T08:05:11.180Z,10.55
2023-01-02T08:07:44.452Z,16.48
2023-01-02T08:10:12.344Z,10.18
2023-01-02T08:12:39.502Z,13.27
2023-01-02T08:15:06.897Z,12.13
2023-01-02T08:17:33.590Z,12.63
2023-01-02T08:20:06.902Z,12.93
2023-01-02T08:22:33.882Z,18.00
2023-01-02T08:25:01.267Z,20.42
2023-01-02T08:27:27.712Z,13.85
2023-01-02T08:29:54.220Z,9.93
2023-01-02T08:32:20.727Z,10.05
2023-01-02T08:34:47.290Z,8.85
2023-01-02T08:37:13.808Z,14.65
2023-01-02T08:39:40.254Z,9.98
2023-01-02T08:42:07.044Z,9.05
2023-01-02T08:44:35.213Z,10.85
2023-01-02T08:47:01.604Z,13.30
2023-01-02T08:49:28.030Z,14.77
2023-01-02T08:51:54.445Z,9.63
2023-01-02T08:54:20.876Z,11.25
2023-01-02T08:56:48.377Z,11.43
2023-01-02T08:59:15.354Z,6.38
2023-01-02T09:01:42.893Z,8.10
2023-01-02T09:04:12.813Z,9.30
2023-01-02T09:06:39.810Z,10.52
2023-01-02T09:09:11.503Z,11.65
2023-01-02T09:11:44.390Z,5.80
2023-01-02T09:14:10.889Z,9.38
2023-01-02T09:16:37.399Z,18.80
2023-01-02T09:19:04.043Z,14.65
2023-01-02T09:21:30.654Z,25.98
2023-01-02T09:23:57.196Z,21.73
2023-01-02T09:26:23.930Z,15.95
2023-01-02T09:28:50.391Z,13.32
2023-01-02T09:31:17.985Z,13.10
2023-01-02T09:33:46.124Z,14.00
2023-01-02T09:36:15.316Z,17.27
2023-01-02T09:38:42.552Z,17.50
2023-01-02T09:41:21.253Z,19.20
2023-01-02T09:44:11.270Z,37.60
2023-01-02T09:47:00.306Z,25.73
2023-01-02T09:49:52.089Z,37.80
2023-01-02T09:52:21.883Z,34.92
2023-01-02T09:54:48.440Z,29.45
2023-01-02T09:57:27.109Z,31.23
2023-01-02T10:00:12.290Z,24.67
2023-01-02T10:02:50.919Z,11.77
2023-01-02T10:05:53.474Z,16.85
2023-01-02T10:08:31.699Z,29.70
2023-01-02T10:11:23.461Z,17.48
2023-01-02T10:14:21.337Z,12.05
2023-01-02T10:16:56.238Z,7.55
2023-01-02T10:19:40.752Z,9.02
2023-01-02T10:22:11.118Z,3.65
2023-01-02T10:24:54.727Z,4.28
2023-01-02T10:27:32.473Z,5.90
2023-01-02T10:30:11.006Z,3.47
2023-01-02T10:32:39.326Z,4.88
2023-01-02T10:35:05.747Z,8.02
2023-01-02T10:37:34.050Z,6.68
2023-01-02T10:40:01.141Z,5.22
2023-01-02T10:42:27.737Z,6.75
2023-01-02T10:44:54.195Z,6.22
2023-01-02T10:47:38.089Z,12.30
2023-01-02T10:50:15.912Z,7.50
2023-01-02T10:52:54.032Z,9.95
2023-01-02T10:55:40.319Z,4.57
2023-01-02T10:58:23.675Z,8.80
2023-01-02T11:01:02.204Z,4.20
2023-01-02T11:03:28.669Z,12.38
2023-01-02T11:06:10.317Z,7.05
2023-01-02T11:08:42.375Z,14.10
2023-01-02T11:11:17.461Z,5.80
2023-01-02T11:13:54.084Z,4.78
2023-01-02T11:16:23.108Z,5.13
2023-01-02T11:18:53.111Z,7.22
2023-01-02T11:21:31.969Z,5.93
2023-01-02T11:24:04.328Z,11.60
2023-01-02T11:26:34.360Z,6.10
2023-01-02T11:29:17.790Z,7.43
2023-01-02T11:31:57.994Z,5.55
2023-01-02T11:34:37.529Z,7.40
2023-01-02T11:37:16.903Z,5.18
2023-01-02T11:39:57.980Z,7.53
2023-01-02T11:42:51.137Z,5.38
2023-01-02T11:45:18.667Z,7.45
2023-01-02T11:47:49.378Z,5.45
2023-01-02T11:50:27.993Z,5.60
2023-01-02T11:53:07.537Z,8.93
2023-01-02T11:55:40.082Z,4.70
2023-01-02T11:58:15.917Z,5.75
2023-01-02T12:00:44.171Z,7.53
2023-01-02T12:03:18.858Z,5.65
2023-01-02T12:06:07.289Z,4.10
2023-01-02T12:09:05.033Z,6.97
2023-01-02T12:11:59.738Z,7.32
2023-01-02T12:15:03.373Z,5.07
2023-01-02T12:17:46.372Z,8.48
2023-01-02T12:20:27.276Z,4.68
2023-01-02T12:23:03.586Z,4.72
2023-01-02T12:25:49.298Z,5.90
2023-01-02T12:28:26.935Z,18.80
2023-01-02T12:31:30.850Z,9.48
2023-01-02T12:34:08.142Z,4.47
2023-01-02T12:37:04.469Z,9.75
2023-01-02T12:39:50.172Z,5.72
2023-01-02T12:42:31.276Z,4.77
2023-01-02T12:44:58.833Z,4.10
2023-01-02T12:47:34.212Z,4.00
2023-01-02T12:50:39.355Z,7.88
2023-01-02T12:53:26.880Z,5.88
2023-01-02T12:56:21.757Z,5.85
2023-01-02T12:59:17.947Z,6.63
2023-01-02T13:02:31.354Z,5.57
2023-01-02T13:05:05.512Z,4.47
2023-01-02T13:07:40.093Z,8.07
2023-01-02T13:10:12.560Z,8.65
2023-01-02T13:12:39.535Z,14.23
2023-01-02T13:15:18.950Z,5.00
2023-01-02T13:17:51.388Z,3.08
2023-01-02T13:20:44.508Z,8.63
2023-01-02T13:23:32.400Z,8.57
2023-01-02T13:26:11.534Z,7.00
2023-01-02T13:28:42.161Z,7.70
2023-01-02T13:31:44.718Z,5.68
2023-01-02T13:34:03.032Z,3.47
2023-01-02T13:36:39.236Z,7.10
2023-01-02T13:39:18.884Z,5.15
2023-01-02T13:42:23.217Z,9.95
2023-01-02T13:44:53.468Z,8.98
2023-01-02T13:47:34.010Z,6.85
2023-01-02T13:50:14.323Z,8.90
2023-01-02T13:52:41.516Z,5.90
2023-01-02T13:55:21.117Z,7.78
2023-01-02T13:58:14.845Z,7.20
2023-01-02T14:00:53.569Z,5.57
2023-01-02T14:03:21.809Z,5.63
2023-01-02T14:05:57.038Z,4.57
2023-01-02T14:08:25.822Z,5.38
2023-01-02T14:11:00.604Z,2.78
2023-01-02T14:13:36.470Z,5.90
2023-01-02T14:16:30.789Z,5.03
2023-01-02T14:19:12.479Z,4.43
2023-01-02T14:21:46.509Z,5.15
2023-01-02T14:24:28.699Z,6.10
2023-01-02T14:27:00.335Z,12.88
2023-01-02T14:29:27.992Z,6.15
2023-01-02T14:32:16.744Z,7.70
2023-01-02T14:34:47.336Z,5.97
2023-01-02T14:37:38.172Z,11.73
2023-01-02T14:40:23.007Z,6.53
2023-01-02T14:43:12.868Z,5.80
2023-01-02T14:45:59.085Z,7.93
2023-01-02T14:48:35.688Z,7.03
2023-01-02T14:51:08.355Z,5.75
2023-01-02T14:53:48.709Z,4.38
2023-01-02T14:56:20.902Z,7.65
2023-01-02T14:58:48.798Z,7.70
2023-01-02T15:01:43.442Z,9.85
2023-01-02T15:04:38.820Z,4.68
2023-01-02T15:07:25.384Z,4.95
2023-01-02T15:09:57.098Z,4.97
2023-01-02T15:12:45.394Z,5.32
2023-01-02T15:15:23.187Z,2.95
2023-01-02T15:17:51.592Z,4.78
2023-01-02T15:20:21.488Z,3.83
2023-01-02T15:22:48.576Z,6.25
2023-01-02T15:25:33.305Z,4.35
2023-01-02T15:27:59.720Z,2.65
2023-01-02T15:30:34.482Z,4.03
2023-01-02T15:33:00.943Z,2.00
2023-01-02T15:35:32.516Z,2.20
2023-01-02T15:37:58.982Z,4.43
2023-01-02T15:40:34.719Z,2.00
2023-01-02T15:43:25.932Z,1.50
2023-01-02T15:45:52.953Z,4.13
2023-01-02T15:48:21.813Z,4.95
2023-01-02T15:50:50.460Z,4.13
2023-01-02T15:53:25.272Z,3.08
2023-01-02T15:55:51.690Z,2.88
2023-01-02T15:58:18.063Z,4.18
2023-01-02T16:00:46.054Z,5.82
2023-01-02T16:04:00.709Z,3.72
2023-01-02T16:06:34.280Z,2.08
2023-01-02T16:09:06.429Z,4.40
2023-01-02T16:11:50.626Z,3.92
2023-01-02T16:14:29.875Z,3.83
2023-01-02T16:17:06.101Z,4.97
2023-01-02T16:19:37.388Z,3.38
2023-01-02T16:22:09.898Z,1.73
2023-01-02T16:24:44.279Z,3.72
2023-01-02T16:27:25.305Z,1.88
2023-01-02T16:29:53.465Z,4.03
2023-01-02T16:32:26.861Z,2.28
2023-01-02T16:35:02.948Z,5.65
2023-01-02T16:37:34.901Z,2.72
2023-01-02T16:41:01.536Z,2.17
2023-01-02T16:43:23.262Z,2.20
2023-01-02T16:45:51.729Z,4.32
2023-01-02T16:48:25.197Z,3.67
2023-01-02T16:50:53.829Z,3.28
2023-01-02T16:53:27.245Z,2.30
2023-01-02T16:55:54.048Z,4.32
2023-01-02T16:58:21.142Z,3.63
2023-01-02T17:00:48.838Z,2.28
2023-01-02T17:03:18.740Z,1.98
2023-01-02T17:06:02.362Z,3.63
2023-01-02T17:08:31.375Z,3.03
2023-01-02T17:10:58.874Z,1.95
2023-01-02T17:13:26.339Z,3.20
2023-01-02T17:15:52.907Z,4.43
2023-01-02T17:18:19.418Z,2.75
2023-01-02T17:20:46.042Z,2.22
2023-01-02T17:23:12.686Z,4.70
2023-01-02T17:25:42.827Z,6.50
2023-01-02T17:28:09.950Z,4.72
2023-01-02T17:30:36.505Z,5.57
2023-01-02T17:33:04.422Z,4.72
2023-01-02T17:35:33.484Z,3.42
2023-01-02T17:38:00.111Z,2.90
2023-01-02T17:40:27.003Z,3.67
2023-01-02T17:42:53.593Z,5.95
2023-01-02T17:45:20.389Z,2.50
2023-01-02T17:48:02.185Z,2.28
2023-01-02T17:50:32.535Z,5.25
2023-01-02T17:52:59.842Z,3.22
2023-01-02T17:55:26.361Z,2.63
2023-01-02T17:57:52.867Z,3.45
2023-01-02T18:00:23.231Z,2.65
2023-01-02T18:02:50.374Z,2.10
2023-01-02T18:05:17.100Z,3.38
2023-01-02T18:07:43.712Z,3.47
2023-01-02T18:10:12.539Z,7.30
2023-01-02T18:12:42.807Z,1.85
2023-01-02T18:15:11.721Z,3.88
2023-01-02T18:17:38.360Z,1.98
2023-01-02T18:20:16.772Z,2.20
2023-01-02T18:22:48.911Z,1.80
2023-01-02T18:25:24.215Z,1.80
2023-01-02T18:27:51.231Z,2.92
2023-01-02T18:30:21.756Z,1.88
2023-01-02T18:32:49.663Z,2.65
2023-01-02T18:38:30.916Z,1.70
2023-01-02T18:43:37.681Z,3.67
2023-01-02T18:46:16.032Z,2.17
2023-01-02T18:48:42.991Z,1.30
2023-01-02T18:51:16.149Z,2.00
2023-01-02T18:53:53.647Z,2.40
2023-01-02T18:56:25.775Z,2.72
2023-01-02T18:59:10.767Z,2.67
2023-01-02T19:04:24.406Z,1.77
2023-01-02T19:06:56.736Z,1.80
2023-01-02T19:09:35.009Z,1.50
2023-01-02T19:12:49.357Z,2.05
2023-01-02T19:15:42.869Z,1.48
2023-01-02T19:18:17.809Z,1.60
2023-01-02T19:20:47.670Z,3.80
2023-01-02T19:23:32.416Z,1.95
2023-01-02T19:26:13.660Z,1.38
2023-01-02T19:28:49.008Z,1.40
2023-01-02T19:31:16.804Z,1.40
2023-01-02T19:33:48.907Z,1.30
2023-01-02T19:36:41.142Z,0.90
2023-01-02T19:39:25.221Z,1.42
2023-01-02T19:42:10.236Z,1.67
2023-01-02T19:44:36.729Z,0.68
2023-01-02T19:47:04.131Z,0.77
2023-01-02T19:49:30.655Z,1.65
2023-01-02T19:51:57.158Z,1.15
2023-01-02T19:54:23.765Z,1.30
2023-01-02T19:56:50.252Z,0.80
2023-01-02T19:59:16.679Z,1.27
2023-01-02T20:01:43.224Z,1.40
2023-01-02T20:04:09.733Z,0.60
2023-01-02T20:06:36.411Z,1.10
2023-01-02T20:09:04.651Z,1.13
2023-01-02T20:11:49.995Z,0.95
2023-01-02T20:14:16.474Z,2.83
2023-01-02T20:16:42.981Z,1.55
2023-01-02T20:19:09.587Z,1.05
2023-01-02T20:21:36.171Z,1.00
2023-01-02T20:24:02.717Z,1.60
2023-01-02T20:26:29.897Z,1.25
2023-01-02T20:28:56.391Z,2.30
2023-01-02T20:31:23.023Z,2.85
2023-01-02T20:33:49.471Z,2.00
2023-01-02T20:36:15.923Z,1.60
2023-01-02T20:38:42.345Z,2.92
2023-01-02T20:41:08.891Z,2.72
2023-01-02T20:43:35.311Z,2.15
2023-01-02T20:46:01.844Z,1.20
2023-01-02T20:48:28.311Z,0.95
2023-01-02T20:50:54.791Z,1.02
2023-01-02T20:53:21.281Z,1.67
2023-01-02T20:55:47.794Z,2.95
2023-01-02T20:58:14.453Z,1.65
2023-01-02T21:00:40.986Z,1.58
2023-01-02T21:03:07.724Z,0.80
2023-01-02T21:05:34.629Z,6.65
2023-01-02T21:08:01.068Z,0.75
2023-01-02T21:10:27.525Z,1.58
2023-01-02T21:13:10.557Z,0.88
2023-01-02T21:15:45.026Z,0.57
2023-01-02T21:18:23.816Z,1.70
2023-01-02T21:20:53.722Z,1.00
2023-01-02T21:23:21.640Z,1.13
2023-01-02T21:25:48.412Z,0.77
2023-01-02T21:28:16.431Z,0.70
2023-01-02T21:30:43.673Z,0.57
2023-01-02T21:33:19.989Z,1.27
2023-01-02T21:38:13.764Z,0.70
2023-01-02T21:40:40.702Z,0.90
2023-01-02T21:43:07.226Z,0.68
2023-01-02T21:45:33.732Z,0.90
2023-01-02T21:48:00.261Z,0.60
2023-01-02T21:50:27.557Z,0.55
2023-01-02T21:52:54.452Z,0.70
2023-01-02T21:55:22.297Z,0.60
2023-01-02T22:00:37.043Z,0.57
2023-01-02T22:03:03.649Z,0.70
2023-01-02T22:05:30.151Z,0.55
2023-01-02T22:07:58.502Z,1.70
2023-01-02T22:10:24.961Z,0.60
2023-01-02T22:12:51.445Z,0.80
2023-01-02T22:15:17.971Z,0.93
2023-01-02T22:17:44.422Z,1.45
2023-01-02T22:20:11.511Z,0.50
2023-01-02T22:22:38.666Z,0.98
2023-01-02T22:25:05.787Z,0.68
2023-01-02T22:27:32.417Z,0.60
2023-01-02T22:32:47.052Z,0.57
2023-01-02T22:35:13.539Z,0.60
2023-01-02T22:37:39.951Z,0.85
2023-01-02T22:40:06.714Z,0.80
2023-01-02T22:43:08.229Z,0.93
2023-01-02T22:45:47.753Z,0.47
2023-01-02T22:48:21.482Z,0.70
2023-01-02T22:50:50.550Z,0.82
2023-01-02T22:53:30.142Z,0.60
2023-01-02T22:55:56.793Z,0.60
2023-01-02T22:58:24.629Z,0.55
2023-01-02T23:01:02.738Z,0.65
2023-01-02T23:03:31.912Z,0.50
2023-01-02T23:05:58.444Z,0.52
2023-01-02T23:08:24.937Z,0.60
2023-01-02T23:10:52.036Z,0.57
2023-01-02T23:13:18.429Z,0.93
2023-01-02T23:16:03.742Z,1.00
2023-01-02T23:18:56.003Z,0.60
2023-01-02T23:21:24.553Z,0.57
2023-01-02T23:23:51.558Z,0.70
2023-01-02T23:26:19.324Z,0.70
2023-01-02T23:31:34.335Z,0.60
2023-01-02T23:34:00.979Z,0.80
2023-01-02T23:36:27.834Z,0.52
2023-01-02T23:38:54.294Z,0.70
2023-01-02T23:41:20.777Z,0.75
2023-01-02T23:43:47.238Z,0.85
2023-01-02T23:46:13.801Z,0.55
2023-01-02T23:48:40.270Z,1.20
2023-01-02T23:51:06.829Z,0.70
2023-01-02T23:53:33.259Z,0.70
2023-01-02T23:55:59.970Z,0.63
2023-01-02T23:58:26.412Z,0.60
